sensor_id;sensor_type;location;lat;lon;timestamp;P1;durP1;ratioP1;P2;durP2;ratioP2
30080;SDS011;16902;50.816;12.828;2023-06-14T00:00:50;7.55;;;7.25;;
30080;SDS011;16902;50.816;12.828;2023-06-14T00:05:54;7.93;;;7.63;;
30080;SDS011;16902;50.816;12.828;2023-06-14T00:10:56;7.47;;;7.18;;
30080;SDS011;16902;50.816;12.828;2023-06-14T00:15:58;7.50;;;7.15;;
30080;SDS011;16902;50.816;12.828;2023-06-14T00:21:00;7.53;;;7.07;;
30080;SDS011;16902;50.816;12.828;2023-06-14T00:26:03;7.47;;;7.07;;
30080;SDS011;16902;50.816;12.828;2023-06-14T00:31:05;7.15;;;6.85;;
30080;SDS011;16902;50.816;12.828;2023-06-14T00:36:07;6.93;;;6.63;;
30080;SDS011;16902;50.816;12.828;2023-06-14T00:41:09;7.22;;;6.93;;
30080;SDS011;16902;50.816;12.828;2023-06-14T00:46:11;7.45;;;7.15;;
30080;SDS011;16902;50.816;12.828;2023-06-14T00:51:13;6.80;;;6.50;;
30080;SDS011;16902;50.816;12.828;2023-06-14T00:56:15;6.70;;;6.40;;
30080;SDS011;16902;50.816;12.828;2023-06-14T01:01:17;6.72;;;6.43;;
30080;SDS011;16902;50.816;12.828;2023-06-14T01:12:09;6.25;;;5.95;;
30080;SDS011;16902;50.816;12.828;2023-06-14T01:17:22;6.80;;;6.40;;
30080;SDS011;16902;50.816;12.828;2023-06-14T01:22:25;6.10;;;5.90;;
30080;SDS011;16902;50.816;12.828;2023-06-14T01:27:29;6.03;;;5.72;;
30080;SDS011;16902;50.816;12.828;2023-06-14T01:32:34;4.82;;;4.63;;
30080;SDS011;16902;50.816;12.828;2023-06-14T01:37:36;5.60;;;5.40;;
30080;SDS011;16902;50.816;12.828;2023-06-14T01:42:38;5.90;;;5.60;;
30080;SDS011;16902;50.816;12.828;2023-06-14T01:47:41;5.18;;;4.93;;
30080;SDS011;16902;50.816;12.828;2023-06-14T01:52:44;6.05;;;5.75;;
30080;SDS011;16902;50.816;12.828;2023-06-14T01:57:46;5.30;;;5.10;;
30080;SDS011;16902;50.816;12.828;2023-06-14T02:02:48;6.85;;;6.35;;
30080;SDS011;16902;50.816;12.828;2023-06-14T02:07:50;6.15;;;5.85;;
30080;SDS011;16902;50.816;12.828;2023-06-14T02:12:52;5.60;;;5.30;;
30080;SDS011;16902;50.816;12.828;2023-06-14T02:17:55;6.03;;;5.65;;
30080;SDS011;16902;50.816;12.828;2023-06-14T02:22:57;5.38;;;5.07;;
30080;SDS011;16902;50.816;12.828;2023-06-14T02:27:59;5.68;;;5.38;;
30080;SDS011;16902;50.816;12.828;2023-06-14T02:33:00;5.30;;;5.10;;
30080;SDS011;16902;50.816;12.828;2023-06-14T02:38:03;5.88;;;5.47;;
30080;SDS011;16902;50.816;12.828;2023-06-14T02:43:04;5.68;;;5.28;;
30080;SDS011;16902;50.816;12.828;2023-06-14T02:48:06;5.32;;;5.10;;
30080;SDS011;16902;50.816;12.828;2023-06-14T02:53:08;5.25;;;5.05;;
30080;SDS011;16902;50.816;12.828;2023-06-14T02:58:10;5.88;;;5.55;;
30080;SDS011;16902;50.816;12.828;2023-06-14T03:03:12;5.50;;;5.20;;
30080;SDS011;16902;50.816;12.828;2023-06-14T03:08:24;5.10;;;4.90;;
30080;SDS011;16902;50.816;12.828;2023-06-14T03:13:30;4.45;;;4.25;;
30080;SDS011;16902;50.816;12.828;2023-06-14T03:18:34;5.25;;;4.95;;
30080;SDS011;16902;50.816;12.828;2023-06-14T03:23:39;4.93;;;4.68;;
30080;SDS011;16902;50.816;12.828;2023-06-14T03:28:41;4.85;;;4.57;;
30080;SDS011;16902;50.816;12.828;2023-06-14T03:33:43;5.07;;;4.78;;
30080;SDS011;16902;50.816;12.828;2023-06-14T03:38:46;4.95;;;4.65;;
30080;SDS011;16902;50.816;12.828;2023-06-14T03:43:50;5.22;;;4.93;;
30080;SDS011;16902;50.816;12.828;2023-06-14T03:48:52;5.28;;;4.93;;
30080;SDS011;16902;50.816;12.828;2023-06-14T03:53:54;4.50;;;4.30;;
30080;SDS011;16902;50.816;12.828;2023-06-14T03:59:17;5.25;;;4.95;;
30080;SDS011;16902;50.816;12.828;2023-06-14T04:04:19;6.05;;;5.65;;
30080;SDS011;16902;50.816;12.828;2023-06-14T04:09:23;5.38;;;5.05;;
30080;SDS011;16902;50.816;12.828;2023-06-14T04:14:26;5.15;;;4.78;;
30080;SDS011;16902;50.816;12.828;2023-06-14T04:19:28;6.18;;;5.80;;
30080;SDS011;16902;50.816;12.828;2023-06-14T04:24:30;5.43;;;5.13;;
30080;SDS011;16902;50.816;12.828;2023-06-14T04:29:34;6.00;;;5.60;;
30080;SDS011;16902;50.816;12.828;2023-06-14T04:34:40;6.20;;;5.68;;
30080;SDS011;16902;50.816;12.828;2023-06-14T04:39:43;6.13;;;5.68;;
30080;SDS011;16902;50.816;12.828;2023-06-14T04:44:45;6.38;;;6.07;;
30080;SDS011;16902;50.816;12.828;2023-06-14T04:49:50;5.90;;;5.65;;
30080;SDS011;16902;50.816;12.828;2023-06-14T04:54:55;6.65;;;6.35;;
30080;SDS011;16902;50.816;12.828;2023-06-14T04:59:59;6.43;;;6.13;;
30080;SDS011;16902;50.816;12.828;2023-06-14T05:05:04;7.30;;;6.90;;
30080;SDS011;16902;50.816;12.828;2023-06-14T05:10:09;6.40;;;6.00;;
30080;SDS011;16902;50.816;12.828;2023-06-14T05:15:12;6.25;;;5.95;;
30080;SDS011;16902;50.816;12.828;2023-06-14T05:20:14;7.18;;;6.68;;
30080;SDS011;16902;50.816;12.828;2023-06-14T05:25:16;7.20;;;6.90;;
30080;SDS011;16902;50.816;12.828;2023-06-14T05:30:18;7.22;;;6.82;;
30080;SDS011;16902;50.816;12.828;2023-06-14T05:35:20;8.05;;;7.57;;
30080;SDS011;16902;50.816;12.828;2023-06-14T05:40:23;6.75;;;6.45;;
30080;SDS011;16902;50.816;12.828;2023-06-14T05:45:25;6.82;;;6.50;;
30080;SDS011;16902;50.816;12.828;2023-06-14T05:50:27;8.77;;;8.27;;
30080;SDS011;16902;50.816;12.828;2023-06-14T05:55:29;7.45;;;7.15;;
30080;SDS011;16902;50.816;12.828;2023-06-14T06:00:31;7.75;;;7.35;;
30080;SDS011;16902;50.816;12.828;2023-06-14T06:05:33;8.30;;;7.90;;
30080;SDS011;16902;50.816;12.828;2023-06-14T06:10:35;8.40;;;7.88;;
30080;SDS011;16902;50.816;12.828;2023-06-14T06:15:37;9.10;;;8.68;;
30080;SDS011;16902;50.816;12.828;2023-06-14T06:20:39;8.90;;;8.48;;
30080;SDS011;16902;50.816;12.828;2023-06-14T06:25:40;8.45;;;8.05;;
30080;SDS011;16902;50.816;12.828;2023-06-14T06:30:42;8.73;;;8.32;;
30080;SDS011;16902;50.816;12.828;2023-06-14T06:35:44;9.27;;;8.77;;
30080;SDS011;16902;50.816;12.828;2023-06-14T06:40:46;8.63;;;8.23;;
30080;SDS011;16902;50.816;12.828;2023-06-14T06:45:48;8.63;;;8.23;;
30080;SDS011;16902;50.816;12.828;2023-06-14T06:50:50;8.88;;;8.48;;
30080;SDS011;16902;50.816;12.828;2023-06-14T06:55:53;8.27;;;7.88;;
30080;SDS011;16902;50.816;12.828;2023-06-14T07:00:55;9.85;;;9.35;;
30080;SDS011;16902;50.816;12.828;2023-06-14T07:05:57;10.02;;;9.52;;
30080;SDS011;16902;50.816;12.828;2023-06-14T07:11:00;10.52;;;10.02;;
30080;SDS011;16902;50.816;12.828;2023-06-14T07:16:04;9.98;;;9.48;;
30080;SDS011;16902;50.816;12.828;2023-06-14T07:21:06;10.27;;;9.82;;
30080;SDS011;16902;50.816;12.828;2023-06-14T07:26:08;10.65;;;10.15;;
30080;SDS011;16902;50.816;12.828;2023-06-14T07:31:10;9.95;;;9.55;;
30080;SDS011;16902;50.816;12.828;2023-06-14T07:36:14;10.95;;;10.45;;
30080;SDS011;16902;50.816;12.828;2023-06-14T07:41:16;11.02;;;10.52;;
30080;SDS011;16902;50.816;12.828;2023-06-14T07:46:18;11.27;;;10.77;;
30080;SDS011;16902;50.816;12.828;2023-06-14T07:51:20;11.50;;;10.90;;
30080;SDS011;16902;50.816;12.828;2023-06-14T07:56:23;12.00;;;11.40;;
30080;SDS011;16902;50.816;12.828;2023-06-14T08:01:25;11.18;;;10.68;;
30080;SDS011;16902;50.816;12.828;2023-06-14T08:06:29;11.70;;;11.20;;
30080;SDS011;16902;50.816;12.828;2023-06-14T08:11:32;12.40;;;11.82;;
30080;SDS011;16902;50.816;12.828;2023-06-14T08:16:36;12.52;;;12.02;;
30080;SDS011;16902;50.816;12.828;2023-06-14T08:21:39;12.75;;;12.25;;
30080;SDS011;16902;50.816;12.828;2023-06-14T08:26:41;13.02;;;12.43;;
30080;SDS011;16902;50.816;12.828;2023-06-14T08:31:43;12.00;;;11.50;;
30080;SDS011;16902;50.816;12.828;2023-06-14T08:36:45;13.20;;;12.60;;
30080;SDS011;16902;50.816;12.828;2023-06-14T08:41:47;12.48;;;11.98;;
30080;SDS011;16902;50.816;12.828;2023-06-14T08:46:53;12.55;;;12.02;;
30080;SDS011;16902;50.816;12.828;2023-06-14T08:51:59;12.95;;;12.38;;
30080;SDS011;16902;50.816;12.828;2023-06-14T08:57:02;12.98;;;12.48;;
30080;SDS011;16902;50.816;12.828;2023-06-14T09:02:08;13.50;;;12.88;;
30080;SDS011;16902;50.816;12.828;2023-06-14T09:07:14;12.95;;;12.43;;
30080;SDS011;16902;50.816;12.828;2023-06-14T09:12:16;12.65;;;12.15;;
30080;SDS011;16902;50.816;12.828;2023-06-14T09:17:18;12.93;;;12.43;;
30080;SDS011;16902;50.816;12.828;2023-06-14T09:22:20;13.20;;;12.52;;
30080;SDS011;16902;50.816;12.828;2023-06-14T09:27:22;12.82;;;12.32;;
30080;SDS011;16902;50.816;12.828;2023-06-14T09:32:24;13.50;;;12.90;;
30080;SDS011;16902;50.816;12.828;2023-06-14T09:37:30;12.85;;;12.35;;
30080;SDS011;16902;50.816;12.828;2023-06-14T09:42:33;13.75;;;13.15;;
30080;SDS011;16902;50.816;12.828;2023-06-14T09:47:37;13.50;;;12.90;;
30080;SDS011;16902;50.816;12.828;2023-06-14T09:52:53;13.63;;;13.02;;
30080;SDS011;16902;50.816;12.828;2023-06-14T09:58:04;13.75;;;13.15;;
30080;SDS011;16902;50.816;12.828;2023-06-14T10:03:12;13.10;;;12.60;;
30080;SDS011;16902;50.816;12.828;2023-06-14T10:08:17;12.93;;;12.32;;
30080;SDS011;16902;50.816;12.828;2023-06-14T10:13:21;13.57;;;12.98;;
30080;SDS011;16902;50.816;12.828;2023-06-14T10:23:37;14.20;;;13.60;;
30080;SDS011;16902;50.816;12.828;2023-06-14T10:28:43;14.85;;;14.15;;
30080;SDS011;16902;50.816;12.828;2023-06-14T10:33:58;14.02;;;13.43;;
30080;SDS011;16902;50.816;12.828;2023-06-14T10:39:17;13.55;;;12.95;;
30080;SDS011;16902;50.816;12.828;2023-06-14T10:49:37;13.55;;;12.98;;
30080;SDS011;16902;50.816;12.828;2023-06-14T11:00:10;13.90;;;13.30;;
30080;SDS011;16902;50.816;12.828;2023-06-14T11:05:15;13.45;;;12.85;;
30080;SDS011;16902;50.816;12.828;2023-06-14T11:15:39;13.82;;;13.23;;
30080;SDS011;16902;50.816;12.828;2023-06-14T11:20:46;13.55;;;12.95;;
30080;SDS011;16902;50.816;12.828;2023-06-14T11:25:52;12.77;;;12.27;;
30080;SDS011;16902;50.816;12.828;2023-06-14T11:31:00;13.70;;;13.10;;
30080;SDS011;16902;50.816;12.828;2023-06-14T11:36:03;13.70;;;13.10;;
30080;SDS011;16902;50.816;12.828;2023-06-14T11:41:10;13.70;;;13.10;;
30080;SDS011;16902;50.816;12.828;2023-06-14T11:46:12;13.30;;;12.80;;
30080;SDS011;16902;50.816;12.828;2023-06-14T11:51:17;12.82;;;12.32;;
30080;SDS011;16902;50.816;12.828;2023-06-14T11:56:20;12.93;;;12.43;;
30080;SDS011;16902;50.816;12.828;2023-06-14T12:01:22;13.00;;;12.50;;
30080;SDS011;16902;50.816;12.828;2023-06-14T12:06:29;12.75;;;12.25;;
30080;SDS011;16902;50.816;12.828;2023-06-14T12:11:37;12.75;;;12.25;;
30080;SDS011;16902;50.816;12.828;2023-06-14T12:16:40;13.10;;;12.60;;
30080;SDS011;16902;50.816;12.828;2023-06-14T12:21:48;13.02;;;12.52;;
30080;SDS011;16902;50.816;12.828;2023-06-14T12:26:51;12.73;;;12.23;;
30080;SDS011;16902;50.816;12.828;2023-06-14T12:31:54;12.88;;;12.20;;
30080;SDS011;16902;50.816;12.828;2023-06-14T12:36:58;12.73;;;12.23;;
30080;SDS011;16902;50.816;12.828;2023-06-14T12:42:00;13.20;;;12.70;;
30080;SDS011;16902;50.816;12.828;2023-06-14T12:47:02;12.90;;;12.40;;
30080;SDS011;16902;50.816;12.828;2023-06-14T12:52:04;13.82;;;13.23;;
30080;SDS011;16902;50.816;12.828;2023-06-14T12:57:06;14.77;;;14.18;;
30080;SDS011;16902;50.816;12.828;2023-06-14T13:07:18;13.85;;;13.32;;
30080;SDS011;16902;50.816;12.828;2023-06-14T13:12:20;13.73;;;13.18;;
30080;SDS011;16902;50.816;12.828;2023-06-14T13:17:22;13.75;;;13.25;;
30080;SDS011;16902;50.816;12.828;2023-06-14T13:22:24;13.30;;;12.80;;
30080;SDS011;16902;50.816;12.828;2023-06-14T13:27:27;13.25;;;12.75;;
30080;SDS011;16902;50.816;12.828;2023-06-14T13:32:29;13.20;;;12.70;;
30080;SDS011;16902;50.816;12.828;2023-06-14T13:37:31;13.45;;;12.90;;
30080;SDS011;16902;50.816;12.828;2023-06-14T13:42:33;13.52;;;12.93;;
30080;SDS011;16902;50.816;12.828;2023-06-14T13:47:35;13.35;;;12.85;;
30080;SDS011;16902;50.816;12.828;2023-06-14T13:52:37;13.18;;;12.68;;
30080;SDS011;16902;50.816;12.828;2023-06-14T13:57:39;12.57;;;12.07;;
30080;SDS011;16902;50.816;12.828;2023-06-14T14:02:41;13.20;;;12.70;;
30080;SDS011;16902;50.816;12.828;2023-06-14T14:07:44;13.57;;;13.07;;
30080;SDS011;16902;50.816;12.828;2023-06-14T14:12:46;12.98;;;12.48;;
30080;SDS011;16902;50.816;12.828;2023-06-14T14:17:50;14.10;;;13.50;;
30080;SDS011;16902;50.816;12.828;2023-06-14T14:22:52;13.50;;;13.00;;
30080;SDS011;16902;50.816;12.828;2023-06-14T14:27:54;13.57;;;13.07;;
30080;SDS011;16902;50.816;12.828;2023-06-14T14:32:56;13.43;;;12.93;;
30080;SDS011;16902;50.816;12.828;2023-06-14T14:37:59;14.05;;;13.45;;
30080;SDS011;16902;50.816;12.828;2023-06-14T14:43:00;13.82;;;13.23;;
30080;SDS011;16902;50.816;12.828;2023-06-14T14:48:02;13.55;;;13.05;;
30080;SDS011;16902;50.816;12.828;2023-06-14T14:53:05;12.80;;;12.30;;
30080;SDS011;16902;50.816;12.828;2023-06-14T14:58:08;13.18;;;12.68;;
30080;SDS011;16902;50.816;12.828;2023-06-14T15:03:09;12.93;;;12.43;;
30080;SDS011;16902;50.816;12.828;2023-06-14T15:08:11;13.70;;;13.20;;
30080;SDS011;16902;50.816;12.828;2023-06-14T15:13:13;13.90;;;13.30;;
30080;SDS011;16902;50.816;12.828;2023-06-14T15:18:15;13.68;;;13.13;;
30080;SDS011;16902;50.816;12.828;2023-06-14T15:23:18;13.93;;;13.32;;
30080;SDS011;16902;50.816;12.828;2023-06-14T15:28:21;13.90;;;13.20;;
30080;SDS011;16902;50.816;12.828;2023-06-14T15:33:24;13.23;;;12.73;;
30080;SDS011;16902;50.816;12.828;2023-06-14T15:38:26;13.55;;;13.05;;
30080;SDS011;16902;50.816;12.828;2023-06-14T15:43:28;12.90;;;12.40;;
30080;SDS011;16902;50.816;12.828;2023-06-14T15:48:30;13.30;;;12.80;;
30080;SDS011;16902;50.816;12.828;2023-06-14T15:53:32;12.70;;;12.20;;
30080;SDS011;16902;50.816;12.828;2023-06-14T15:58:35;13.02;;;12.52;;
30080;SDS011;16902;50.816;12.828;2023-06-14T16:03:37;13.40;;;12.90;;
30080;SDS011;16902;50.816;12.828;2023-06-14T16:08:40;13.43;;;12.82;;
30080;SDS011;16902;50.816;12.828;2023-06-14T16:13:42;14.25;;;13.65;;
30080;SDS011;16902;50.816;12.828;2023-06-14T16:18:44;14.27;;;13.68;;
30080;SDS011;16902;50.816;12.828;2023-06-14T16:23:46;14.48;;;13.88;;
30080;SDS011;16902;50.816;12.828;2023-06-14T16:28:48;14.43;;;13.82;;
30080;SDS011;16902;50.816;12.828;2023-06-14T16:33:50;15.18;;;14.48;;
30080;SDS011;16902;50.816;12.828;2023-06-14T16:38:55;14.52;;;13.93;;
30080;SDS011;16902;50.816;12.828;2023-06-14T16:43:58;14.50;;;13.90;;
30080;SDS011;16902;50.816;12.828;2023-06-14T16:49:00;14.40;;;13.80;;
30080;SDS011;16902;50.816;12.828;2023-06-14T16:54:03;14.38;;;13.77;;
30080;SDS011;16902;50.816;12.828;2023-06-14T16:59:05;15.23;;;14.63;;
30080;SDS011;16902;50.816;12.828;2023-06-14T17:04:07;14.85;;;14.25;;
30080;SDS011;16902;50.816;12.828;2023-06-14T17:09:10;15.02;;;14.35;;
30080;SDS011;16902;50.816;12.828;2023-06-14T17:14:12;14.90;;;14.30;;
30080;SDS011;16902;50.816;12.828;2023-06-14T17:19:14;15.35;;;14.70;;
30080;SDS011;16902;50.816;12.828;2023-06-14T17:24:16;14.38;;;13.77;;
30080;SDS011;16902;50.816;12.828;2023-06-14T17:29:26;14.35;;;13.75;;
30080;SDS011;16902;50.816;12.828;2023-06-14T17:34:28;14.18;;;13.60;;
30080;SDS011;16902;50.816;12.828;2023-06-14T17:39:30;14.50;;;13.90;;
30080;SDS011;16902;50.816;12.828;2023-06-14T17:44:32;15.00;;;14.40;;
30080;SDS011;16902;50.816;12.828;2023-06-14T17:49:34;15.05;;;14.45;;
30080;SDS011;16902;50.816;12.828;2023-06-14T17:54:36;15.75;;;15.05;;
30080;SDS011;16902;50.816;12.828;2023-06-14T17:59:38;15.50;;;14.70;;
30080;SDS011;16902;50.816;12.828;2023-06-14T18:04:40;14.50;;;13.90;;
30080;SDS011;16902;50.816;12.828;2023-06-14T18:09:42;14.55;;;13.95;;
30080;SDS011;16902;50.816;12.828;2023-06-14T18:14:44;15.45;;;14.65;;
30080;SDS011;16902;50.816;12.828;2023-06-14T18:19:45;15.60;;;15.00;;
30080;SDS011;16902;50.816;12.828;2023-06-14T18:24:47;14.82;;;14.23;;
30080;SDS011;16902;50.816;12.828;2023-06-14T18:29:49;15.10;;;14.50;;
30080;SDS011;16902;50.816;12.828;2023-06-14T18:34:51;14.18;;;13.57;;
30080;SDS011;16902;50.816;12.828;2023-06-14T18:39:53;14.30;;;13.70;;
30080;SDS011;16902;50.816;12.828;2023-06-14T18:44:56;14.52;;;13.88;;
30080;SDS011;16902;50.816;12.828;2023-06-14T18:49:57;15.73;;;15.02;;
30080;SDS011;16902;50.816;12.828;2023-06-14T18:54:59;14.65;;;14.05;;
30080;SDS011;16902;50.816;12.828;2023-06-14T19:00:05;14.43;;;13.73;;
30080;SDS011;16902;50.816;12.828;2023-06-14T19:05:08;14.48;;;13.88;;
30080;SDS011;16902;50.816;12.828;2023-06-14T19:10:10;14.27;;;13.68;;
30080;SDS011;16902;50.816;12.828;2023-06-14T19:15:12;13.13;;;12.52;;
30080;SDS011;16902;50.816;12.828;2023-06-14T19:20:14;12.90;;;12.40;;
30080;SDS011;16902;50.816;12.828;2023-06-14T19:25:16;12.50;;;12.00;;
30080;SDS011;16902;50.816;12.828;2023-06-14T19:30:19;12.70;;;12.20;;
30080;SDS011;16902;50.816;12.828;2023-06-14T19:35:21;13.02;;;12.52;;
30080;SDS011;16902;50.816;12.828;2023-06-14T19:40:23;12.90;;;12.30;;
30080;SDS011;16902;50.816;12.828;2023-06-14T19:45:25;12.50;;;12.00;;
30080;SDS011;16902;50.816;12.828;2023-06-14T19:50:27;12.23;;;11.73;;
30080;SDS011;16902;50.816;12.828;2023-06-14T19:55:29;11.77;;;11.27;;
30080;SDS011;16902;50.816;12.828;2023-06-14T20:00:31;11.13;;;10.52;;
30080;SDS011;16902;50.816;12.828;2023-06-14T20:05:34;11.43;;;10.95;;
30080;SDS011;16902;50.816;12.828;2023-06-14T20:10:37;10.93;;;10.48;;
30080;SDS011;16902;50.816;12.828;2023-06-14T20:15:38;10.80;;;10.30;;
30080;SDS011;16902;50.816;12.828;2023-06-14T20:20:40;10.55;;;10.15;;
30080;SDS011;16902;50.816;12.828;2023-06-14T20:25:43;10.13;;;9.73;;
30080;SDS011;16902;50.816;12.828;2023-06-14T20:30:45;10.30;;;9.90;;
30080;SDS011;16902;50.816;12.828;2023-06-14T20:35:47;9.98;;;9.57;;
30080;SDS011;16902;50.816;12.828;2023-06-14T20:40:48;9.50;;;9.10;;
30080;SDS011;16902;50.816;12.828;2023-06-14T20:45:51;8.95;;;8.55;;
30080;SDS011;16902;50.816;12.828;2023-06-14T20:50:56;8.77;;;8.48;;
30080;SDS011;16902;50.816;12.828;2023-06-14T20:55:58;8.63;;;8.23;;
30080;SDS011;16902;50.816;12.828;2023-06-14T21:01:00;8.48;;;7.97;;
30080;SDS011;16902;50.816;12.828;2023-06-14T21:06:02;8.32;;;7.68;;
30080;SDS011;16902;50.816;12.828;2023-06-14T21:11:07;8.07;;;7.72;;
30080;SDS011;16902;50.816;12.828;2023-06-14T21:16:09;8.85;;;8.30;;
30080;SDS011;16902;50.816;12.828;2023-06-14T21:21:11;8.27;;;7.88;;
30080;SDS011;16902;50.816;12.828;2023-06-14T21:26:13;8.45;;;8.05;;
30080;SDS011;16902;50.816;12.828;2023-06-14T21:31:17;9.15;;;8.68;;
30080;SDS011;16902;50.816;12.828;2023-06-14T21:36:20;8.07;;;7.75;;
30080;SDS011;16902;50.816;12.828;2023-06-14T21:41:22;7.82;;;7.43;;
30080;SDS011;16902;50.816;12.828;2023-06-14T21:46:23;7.50;;;7.20;;
30080;SDS011;16902;50.816;12.828;2023-06-14T21:51:25;7.20;;;6.90;;
30080;SDS011;16902;50.816;12.828;2023-06-14T21:56:27;7.15;;;6.85;;
30080;SDS011;16902;50.816;12.828;2023-06-14T22:01:29;7.57;;;7.15;;
30080;SDS011;16902;50.816;12.828;2023-06-14T22:06:31;6.88;;;6.38;;
30080;SDS011;16902;50.816;12.828;2023-06-14T22:11:33;6.35;;;6.05;;
30080;SDS011;16902;50.816;12.828;2023-06-14T22:16:36;6.82;;;6.43;;
30080;SDS011;16902;50.816;12.828;2023-06-14T22:21:38;6.43;;;6.13;;
30080;SDS011;16902;50.816;12.828;2023-06-14T22:26:42;5.65;;;5.45;;
30080;SDS011;16902;50.816;12.828;2023-06-14T22:31:50;6.25;;;5.95;;
30080;SDS011;16902;50.816;12.828;2023-06-14T22:36:52;6.13;;;5.82;;
30080;SDS011;16902;50.816;12.828;2023-06-14T22:41:57;6.90;;;6.57;;
30080;SDS011;16902;50.816;12.828;2023-06-14T22:47:01;7.25;;;6.65;;
30080;SDS011;16902;50.816;12.828;2023-06-14T22:52:03;7.10;;;6.43;;
30080;SDS011;16902;50.816;12.828;2023-06-14T22:57:06;7.07;;;6.68;;
30080;SDS011;16902;50.816;12.828;2023-06-14T23:02:09;6.70;;;6.10;;
30080;SDS011;16902;50.816;12.828;2023-06-14T23:07:13;6.35;;;6.05;;
30080;SDS011;16902;50.816;12.828;2023-06-14T23:12:16;6.63;;;6.22;;
30080;SDS011;16902;50.816;12.828;2023-06-14T23:17:18;5.80;;;5.55;;
30080;SDS011;16902;50.816;12.828;2023-06-14T23:22:20;6.45;;;5.95;;
30080;SDS011;16902;50.816;12.828;2023-06-14T23:27:23;5.63;;;5.43;;
30080;SDS011;16902;50.816;12.828;2023-06-14T23:32:25;13.48;;;8.48;;
30080;SDS011;16902;50.816;12.828;2023-06-14T23:37:31;6.07;;;5.78;;
30080;SDS011;16902;50.816;12.828;2023-06-14T23:42:34;5.90;;;5.63;;
30080;SDS011;16902;50.816;12.828;2023-06-14T23:47:37;5.95;;;5.57;;
30080;SDS011;16902;50.816;12.828;2023-06-14T23:52:39;5.57;;;5.30;;
30080;SDS011;16902;50.816;12.828;2023-06-14T23:57:44;6.07;;;5.78;;
